createdAt,value
2019-04-14T00:01:39.140Z,2.10
2019-04-14T00:04:16.163Z,2.10
2019-04-14T00:06:46.322Z,2.10
2019-04-14T00:09:18.367Z,2.10
2019-04-14T00:11:48.127Z,2.10
2019-04-14T00:14:17.101Z,2.20
2019-04-14T00:16:46.751Z,2.10
2019-04-14T00:19:15.719Z,2.10
2019-04-14T00:21:45.429Z,2.10
2019-04-14T00:24:16.253Z,2.20
2019-04-14T00:26:46.611Z,2.20
2019-04-14T00:29:15.737Z,2.20
2019-04-14T00:31:45.551Z,2.00
2019-04-14T00:34:40.500Z,2.00
2019-04-14T00:37:16.341Z,2.00
2019-04-14T00:39:49.448Z,2.00
2019-04-14T00:42:27.807Z,2.00
2019-04-14T00:45:04.787Z,2.00
2019-04-14T00:47:51.691Z,2.00
2019-04-14T00:50:12.446Z,1.90
2019-04-14T00:52:41.588Z,1.90
2019-04-14T00:55:11.803Z,1.90
2019-04-14T00:57:41.918Z,1.90
2019-04-14T01:00:12.696Z,1.80
2019-04-14T01:02:42.938Z,1.80
2019-04-14T01:05:13.718Z,1.90
2019-04-14T01:07:43.427Z,1.90
2019-04-14T01:10:12.721Z,2.00
2019-04-14T01:12:43.086Z,2.00
2019-04-14T01:15:13.652Z,2.10
2019-04-14T01:17:43.783Z,2.20
2019-04-14T01:20:13.174Z,2.30
2019-04-14T01:22:42.479Z,2.40
2019-04-14T01:25:12.763Z,2.30
2019-04-14T01:27:42.810Z,2.30
2019-04-14T01:30:13.325Z,2.30
2019-04-14T01:32:43.568Z,2.40
2019-04-14T01:35:13.747Z,2.40
2019-04-14T01:37:44.013Z,2.40
2019-04-14T01:40:14.116Z,2.40
2019-04-14T01:42:44.223Z,2.50
2019-04-14T01:45:16.355Z,2.50
2019-04-14T01:47:46.423Z,2.50
2019-04-14T01:50:17.451Z,2.60
2019-04-14T01:52:52.982Z,2.60
2019-04-14T01:55:39.468Z,2.60
2019-04-14T01:58:20.757Z,2.60
2019-04-14T02:01:17.858Z,2.50
2019-04-14T02:03:47.760Z,2.60
2019-04-14T02:06:17.899Z,2.50
2019-04-14T02:08:47.925Z,2.50
2019-04-14T02:11:18.290Z,2.50
2019-04-14T02:13:48.475Z,2.50
2019-04-14T02:16:25.991Z,2.60
2019-04-14T02:18:50.616Z,2.60
2019-04-14T02:21:19.455Z,2.70
2019-04-14T02:23:49.797Z,2.70
2019-04-14T02:26:19.755Z,2.70
2019-04-14T02:28:48.839Z,2.70
2019-04-14T02:31:39.392Z,2.70
2019-04-14T02:34:21.542Z,2.60
2019-04-14T02:36:52.426Z,2.60
2019-04-14T02:42:09.863Z,2.50
2019-04-14T02:49:19.427Z,2.50
2019-04-14T02:51:48.464Z,2.60
2019-04-14T02:54:23.117Z,2.60
2019-04-14T02:56:52.955Z,2.60
2019-04-14T02:59:19.692Z,2.60
2019-04-14T03:02:09.605Z,2.70
2019-04-14T03:04:21.662Z,2.70
2019-04-14T03:07:02.595Z,2.70
2019-04-14T03:09:35.041Z,2.80
2019-04-14T03:11:53.354Z,2.80
2019-04-14T03:20:22.914Z,2.70
2019-04-14T03:25:31.778Z,2.60
2019-04-14T03:28:40.321Z,2.60
2019-04-14T03:38:55.870Z,2.50
2019-04-14T03:41:09.151Z,2.50
2019-04-14T03:46:12.060Z,2.50
2019-04-14T03:51:10.418Z,2.60
2019-04-14T03:53:34.711Z,2.50
2019-04-14T03:56:19.686Z,2.60
2019-04-14T03:58:48.779Z,2.60
2019-04-14T04:01:17.592Z,2.80
2019-04-14T04:03:46.419Z,2.90
2019-04-14T04:06:15.987Z,2.90
2019-04-14T04:08:44.939Z,2.80
2019-04-14T04:11:15.019Z,2.80
2019-04-14T04:13:44.064Z,2.90
2019-04-14T04:16:29.059Z,3.00
2019-04-14T04:19:08.775Z,3.00
2019-04-14T04:21:55.237Z,3.10
2019-04-14T04:24:37.150Z,3.10
2019-04-14T04:27:33.242Z,3.00
2019-04-14T04:30:08.160Z,3.10
2019-04-14T04:33:00.044Z,3.10
2019-04-14T04:35:35.045Z,3.00
2019-04-14T04:38:29.083Z,3.00
2019-04-14T04:40:59.433Z,3.00
2019-04-14T04:43:29.672Z,3.00
2019-04-14T04:45:59.149Z,3.00
2019-04-14T04:48:29.230Z,3.00
2019-04-14T04:50:58.587Z,3.10
2019-04-14T04:53:28.711Z,3.10
2019-04-14T04:55:57.711Z,3.10
2019-04-14T04:58:26.559Z,3.10
2019-04-14T05:00:57.371Z,2.90
2019-04-14T05:03:27.582Z,3.00
2019-04-14T05:06:24.895Z,3.00
2019-04-14T05:08:56.999Z,2.90
2019-04-14T05:11:31.642Z,2.80
2019-04-14T05:14:04.300Z,2.70
2019-04-14T05:16:34.558Z,2.70
2019-04-14T05:19:13.997Z,2.70
2019-04-14T05:21:34.333Z,2.70
2019-04-14T05:24:03.429Z,2.70
2019-04-14T05:26:33.092Z,2.60
2019-04-14T05:29:02.019Z,2.70
2019-04-14T05:31:32.056Z,2.70
2019-04-14T05:34:02.237Z,2.70
2019-04-14T05:36:32.501Z,2.80
2019-04-14T05:39:02.536Z,2.80
2019-04-14T05:41:33.024Z,2.80
2019-04-14T05:44:03.573Z,2.90
2019-04-14T05:46:33.927Z,2.90
2019-04-14T05:49:04.313Z,3.10
2019-04-14T05:51:33.303Z,3.10
2019-04-14T05:54:03.307Z,3.00
2019-04-14T05:56:35.006Z,3.00
2019-04-14T05:59:04.379Z,3.10
2019-04-14T06:01:33.824Z,3.20
2019-04-14T06:04:03.171Z,3.20
2019-04-14T06:06:32.456Z,3.30
2019-04-14T06:09:01.350Z,3.30
2019-04-14T06:11:30.291Z,3.30
2019-04-14T06:13:59.255Z,3.30
2019-04-14T06:16:28.303Z,3.40
2019-04-14T06:18:57.179Z,3.40
2019-04-14T06:21:26.084Z,3.40
2019-04-14T06:23:55.136Z,3.50
2019-04-14T06:26:24.091Z,3.60
2019-04-14T06:28:52.964Z,3.70
2019-04-14T06:31:49.837Z,3.80
2019-04-14T06:34:33.454Z,4.00
2019-04-14T06:37:14.275Z,4.30
2019-04-14T06:39:46.850Z,4.10
2019-04-14T06:42:15.932Z,4.40
2019-04-14T06:44:44.862Z,4.70
2019-04-14T06:47:13.781Z,4.80
2019-04-14T06:49:48.747Z,5.00
2019-04-14T06:52:13.278Z,5.00
2019-04-14T06:54:42.109Z,5.10
2019-04-14T06:57:11.025Z,5.10
2019-04-14T06:59:39.862Z,5.20
2019-04-14T07:02:08.877Z,5.10
2019-04-14T07:04:38.096Z,5.20
2019-04-14T07:07:07.066Z,5.10
2019-04-14T07:09:41.115Z,5.20
2019-04-14T07:12:10.363Z,5.30
2019-04-14T07:14:39.331Z,5.30
2019-04-14T07:17:08.408Z,5.50
2019-04-14T07:19:37.809Z,5.70
2019-04-14T07:22:06.686Z,5.60
2019-04-14T07:24:35.858Z,5.70
2019-04-14T07:27:06.028Z,5.90
2019-04-14T07:29:41.074Z,6.00
2019-04-14T07:32:34.088Z,6.10
2019-04-14T07:35:32.294Z,6.00
2019-04-14T07:38:15.764Z,6.10
2019-04-14T07:41:10.103Z,6.10
2019-04-14T07:44:01.832Z,6.30
2019-04-14T07:46:52.601Z,6.30
2019-04-14T07:49:40.528Z,6.30
2019-04-14T07:52:27.948Z,6.30
2019-04-14T07:55:15.911Z,6.60
2019-04-14T07:58:03.990Z,6.70
2019-04-14T08:00:46.030Z,6.80
2019-04-14T08:03:24.835Z,7.00
2019-04-14T08:05:53.779Z,7.10
2019-04-14T08:08:23.231Z,7.20
2019-04-14T08:10:52.948Z,7.20
2019-04-14T08:13:22.717Z,7.50
2019-04-14T08:15:52.054Z,7.50
2019-04-14T08:18:20.967Z,7.50
2019-04-14T08:20:50.865Z,7.30
2019-04-14T08:23:19.756Z,7.40
2019-04-14T08:25:48.802Z,7.70
2019-04-14T08:28:30.025Z,7.70
2019-04-14T08:31:02.698Z,7.90
2019-04-14T08:33:31.552Z,7.60
2019-04-14T08:36:00.602Z,7.60
2019-04-14T08:38:30.154Z,7.70
2019-04-14T08:40:59.209Z,7.80
2019-04-14T08:43:43.639Z,7.90
2019-04-14T08:46:21.628Z,8.20
2019-04-14T08:49:16.240Z,8.40
2019-04-14T08:52:02.042Z,8.30
2019-04-14T08:55:02.853Z,8.30
2019-04-14T08:57:41.098Z,8.40
2019-04-14T09:00:13.836Z,8.60
2019-04-14T09:03:02.411Z,8.80
2019-04-14T09:05:56.735Z,8.80
2019-04-14T09:08:29.795Z,8.70
2019-04-14T09:11:00.808Z,8.60
2019-04-14T09:13:29.652Z,8.80
2019-04-14T09:15:58.821Z,8.80
2019-04-14T09:18:27.806Z,9.20
2019-04-14T09:20:56.747Z,9.40
2019-04-14T09:23:26.701Z,9.30
2019-04-14T09:25:58.459Z,9.10
2019-04-14T09:28:27.367Z,9.30
2019-04-14T09:30:56.267Z,9.10
2019-04-14T09:33:25.228Z,9.30
2019-04-14T09:35:54.371Z,9.30
2019-04-14T09:38:23.255Z,9.30
2019-04-14T09:40:53.220Z,9.30
2019-04-14T09:43:22.438Z,9.30
2019-04-14T09:45:52.222Z,9.50
2019-04-14T09:48:21.327Z,9.50
2019-04-14T09:50:50.918Z,9.40
2019-04-14T09:53:26.674Z,9.10
2019-04-14T09:55:55.847Z,9.10
2019-04-14T09:58:24.782Z,9.00
2019-04-14T10:00:53.928Z,9.40
2019-04-14T10:03:23.088Z,9.40
2019-04-14T10:05:52.030Z,9.50
2019-04-14T10:08:21.031Z,9.80
2019-04-14T10:10:50.127Z,9.90
2019-04-14T10:13:19.045Z,9.90
2019-04-14T10:15:48.098Z,9.90
2019-04-14T10:18:17.299Z,10.00
2019-04-14T10:20:46.316Z,10.20
2019-04-14T10:23:15.138Z,10.50
2019-04-14T10:25:44.062Z,10.40
2019-04-14T10:28:12.990Z,10.20
2019-04-14T10:30:41.866Z,9.80
2019-04-14T10:33:10.733Z,9.70
2019-04-14T10:35:39.621Z,9.40
2019-04-14T10:38:08.629Z,9.80
2019-04-14T10:40:37.664Z,10.20
2019-04-14T10:43:06.730Z,10.40
2019-04-14T10:45:35.771Z,10.40
2019-04-14T10:48:04.933Z,10.60
2019-04-14T10:50:33.949Z,10.70
2019-04-14T10:53:03.049Z,11.20
2019-04-14T10:55:32.135Z,11.10
2019-04-14T10:58:01.421Z,10.80
2019-04-14T11:00:30.371Z,10.90
2019-04-14T11:03:00.121Z,10.50
2019-04-14T11:05:32.560Z,10.70
2019-04-14T11:08:01.963Z,10.60
2019-04-14T11:10:31.061Z,10.40
2019-04-14T11:13:00.435Z,10.20
2019-04-14T11:15:29.364Z,10.60
2019-04-14T11:17:58.283Z,10.70
2019-04-14T11:20:27.559Z,11.00
2019-04-14T11:23:03.242Z,11.00
2019-04-14T11:25:27.187Z,11.20
2019-04-14T11:27:56.243Z,11.00
2019-04-14T11:30:25.314Z,11.40
2019-04-14T11:33:05.572Z,12.00
2019-04-14T11:35:49.080Z,11.70
2019-04-14T11:38:24.976Z,11.80
2019-04-14T11:40:56.415Z,11.90
2019-04-14T11:43:25.356Z,12.00
2019-04-14T11:45:55.181Z,11.80
2019-04-14T11:48:24.106Z,11.40
2019-04-14T11:50:53.589Z,11.60
2019-04-14T11:53:22.674Z,11.50
2019-04-14T11:55:53.237Z,11.40
2019-04-14T11:58:22.545Z,11.40
2019-04-14T12:01:09.302Z,11.90
2019-04-14T12:03:59.258Z,12.00
2019-04-14T12:06:47.281Z,11.70
2019-04-14T12:09:19.035Z,11.30
2019-04-14T12:11:48.031Z,11.00
2019-04-14T12:14:16.989Z,11.20
2019-04-14T12:16:45.820Z,11.60
2019-04-14T12:19:14.823Z,11.90
2019-04-14T12:21:43.670Z,11.90
2019-04-14T12:24:12.582Z,11.30
2019-04-14T12:26:41.687Z,11.70
2019-04-14T12:29:11.703Z,11.90
2019-04-14T12:31:41.962Z,11.80
2019-04-14T12:34:11.100Z,12.30
2019-04-14T12:36:59.216Z,12.20
2019-04-14T12:39:28.646Z,11.90
2019-04-14T12:42:22.835Z,12.40
2019-04-14T12:45:04.553Z,12.70
2019-04-14T12:47:57.948Z,12.30
2019-04-14T12:50:30.747Z,12.80
2019-04-14T12:52:59.824Z,12.80
2019-04-14T12:55:28.905Z,12.90
2019-04-14T12:58:00.458Z,12.70
2019-04-14T13:00:37.748Z,13.30
2019-04-14T13:03:08.166Z,13.40
2019-04-14T13:05:37.014Z,12.50
2019-04-14T13:08:06.619Z,12.10
2019-04-14T13:10:36.080Z,12.00
2019-04-14T13:13:05.177Z,12.00
2019-04-14T13:15:34.273Z,12.10
2019-04-14T13:18:03.577Z,12.50
2019-04-14T13:20:32.812Z,12.80
2019-04-14T13:23:02.254Z,12.90
2019-04-14T13:25:31.383Z,12.80
2019-04-14T13:28:00.457Z,12.90
2019-04-14T13:30:33.192Z,12.90
2019-04-14T13:33:02.243Z,12.70
2019-04-14T13:35:31.247Z,12.70
2019-04-14T13:38:00.171Z,12.40
2019-04-14T13:40:29.179Z,12.40
2019-04-14T13:42:59.278Z,12.10
2019-04-14T13:45:28.305Z,12.00
2019-04-14T13:47:57.315Z,12.10
2019-04-14T13:50:26.140Z,12.40
2019-04-14T13:52:55.209Z,12.60
2019-04-14T13:55:24.123Z,12.60
2019-04-14T13:57:52.961Z,12.60
2019-04-14T14:00:22.681Z,12.80
2019-04-14T14:02:51.744Z,13.10
2019-04-14T14:05:21.281Z,12.80
2019-04-14T14:07:50.109Z,12.60
2019-04-14T14:10:19.756Z,12.40
2019-04-14T14:12:58.023Z,12.20
2019-04-14T14:15:43.987Z,12.20
2019-04-14T14:18:50.248Z,12.20
2019-04-14T14:21:33.894Z,12.70
2019-04-14T14:24:20.483Z,12.80
2019-04-14T14:26:50.294Z,12.90
2019-04-14T14:29:19.343Z,13.00
2019-04-14T14:31:48.420Z,13.00
2019-04-14T14:34:17.539Z,12.90
2019-04-14T14:36:46.342Z,12.90
2019-04-14T14:39:19.131Z,12.80
2019-04-14T14:41:48.089Z,12.70
2019-04-14T14:44:17.075Z,12.60
2019-04-14T14:47:04.616Z,12.50
2019-04-14T14:49:47.642Z,12.30
2019-04-14T14:52:18.547Z,12.20
2019-04-14T14:54:47.535Z,12.00
2019-04-14T14:57:16.476Z,12.00
2019-04-14T14:59:45.426Z,12.20
2019-04-14T15:02:14.408Z,12.50
2019-04-14T15:04:43.625Z,12.40
2019-04-14T15:07:12.580Z,12.60
2019-04-14T15:09:41.813Z,12.90
2019-04-14T15:12:10.670Z,12.80
2019-04-14T15:14:39.605Z,12.80
2019-04-14T15:17:08.646Z,12.90
2019-04-14T15:19:37.651Z,12.80
2019-04-14T15:22:06.532Z,12.50
2019-04-14T15:24:35.527Z,12.40
2019-04-14T15:27:04.578Z,12.40
2019-04-14T15:29:33.864Z,12.20
2019-04-14T15:32:03.194Z,12.30
2019-04-14T15:34:32.200Z,12.50
2019-04-14T15:37:01.030Z,12.30
2019-04-14T15:39:30.052Z,12.40
2019-04-14T15:41:58.879Z,12.30
2019-04-14T15:44:27.976Z,12.10
2019-04-14T15:46:56.857Z,12.30
2019-04-14T15:49:25.881Z,12.50
2019-04-14T15:51:54.839Z,12.50
2019-04-14T15:54:25.569Z,12.60
2019-04-14T15:57:09.954Z,12.70
2019-04-14T15:59:54.212Z,12.70
2019-04-14T16:02:41.331Z,13.00
2019-04-14T16:05:18.500Z,12.90
2019-04-14T16:07:57.488Z,12.90
2019-04-14T16:10:44.498Z,12.90
2019-04-14T16:13:18.168Z,12.80
2019-04-14T16:16:02.032Z,12.70
2019-04-14T16:18:50.035Z,12.60
2019-04-14T16:21:19.086Z,12.30
2019-04-14T16:23:50.654Z,12.30
2019-04-14T16:26:23.585Z,12.50
2019-04-14T16:28:56.957Z,12.50
2019-04-14T16:31:44.161Z,12.40
2019-04-14T16:34:19.663Z,12.20
2019-04-14T16:36:48.846Z,12.30
2019-04-14T16:39:17.849Z,12.30
2019-04-14T16:41:46.731Z,12.40
2019-04-14T16:44:15.710Z,12.70
2019-04-14T16:46:44.611Z,12.90
2019-04-14T16:49:13.948Z,12.90
2019-04-14T16:51:53.335Z,12.20
2019-04-14T16:54:32.455Z,12.30
2019-04-14T16:57:28.988Z,12.10
2019-04-14T17:02:32.275Z,12.10
2019-04-14T17:05:01.340Z,12.20
2019-04-14T17:10:05.730Z,12.20
2019-04-14T17:12:34.590Z,12.20
2019-04-14T17:18:22.088Z,12.20
2019-04-14T17:21:10.584Z,11.80
2019-04-14T17:23:47.311Z,11.80
2019-04-14T17:26:29.150Z,11.40
2019-04-14T17:29:08.549Z,11.50
2019-04-14T17:31:55.376Z,11.60
2019-04-14T17:34:37.965Z,11.70
2019-04-14T17:37:25.990Z,11.70
2019-04-14T17:40:03.226Z,11.70
2019-04-14T17:42:49.782Z,11.30
2019-04-14T17:45:56.261Z,11.20
2019-04-14T17:48:47.231Z,11.20
2019-04-14T17:51:24.239Z,10.90
2019-04-14T17:54:12.261Z,10.70
2019-04-14T17:56:56.267Z,10.40
2019-04-14T17:59:33.122Z,10.30
2019-04-14T18:02:13.386Z,10.10
2019-04-14T18:05:00.275Z,10.00
2019-04-14T18:07:57.458Z,9.80
2019-04-14T18:10:31.463Z,9.70
2019-04-14T18:13:11.333Z,9.60
2019-04-14T18:15:58.247Z,9.50
2019-04-14T18:18:42.067Z,9.50
2019-04-14T18:21:11.695Z,9.30
2019-04-14T18:23:40.938Z,9.20
2019-04-14T18:26:10.145Z,9.10
2019-04-14T18:28:47.750Z,9.00
2019-04-14T18:31:24.561Z,8.90
2019-04-14T18:34:12.490Z,8.80
2019-04-14T18:36:48.840Z,8.70
2019-04-14T18:39:39.885Z,8.60
2019-04-14T18:42:27.884Z,8.60
2019-04-14T18:45:18.506Z,8.50
2019-04-14T18:47:50.928Z,8.50
2019-04-14T18:50:29.175Z,8.40
2019-04-14T18:53:15.595Z,8.40
2019-04-14T18:56:06.635Z,8.30
2019-04-14T18:58:53.617Z,8.30
2019-04-14T19:01:25.392Z,8.20
2019-04-14T19:03:54.241Z,8.20
2019-04-14T19:06:23.079Z,8.20
2019-04-14T19:08:53.471Z,8.10
2019-04-14T19:11:53.995Z,8.10
2019-04-14T19:14:41.382Z,8.10
2019-04-14T19:17:30.652Z,8.00
2019-04-14T19:20:02.059Z,8.00
2019-04-14T19:22:30.130Z,7.90
2019-04-14T19:25:07.900Z,7.90
2019-04-14T19:27:29.664Z,7.80
2019-04-14T19:29:58.584Z,7.80
2019-04-14T19:32:27.432Z,7.80
2019-04-14T19:34:56.382Z,7.80
2019-04-14T19:37:25.246Z,7.70
2019-04-14T19:39:54.121Z,7.70
2019-04-14T19:42:22.921Z,7.70
2019-04-14T19:44:52.660Z,7.60
2019-04-14T19:47:21.926Z,7.60
2019-04-14T19:49:50.771Z,7.60
2019-04-14T19:52:19.667Z,7.60
2019-04-14T19:54:48.488Z,7.50
2019-04-14T19:57:17.343Z,7.50
2019-04-14T19:59:46.557Z,7.50
2019-04-14T20:02:15.543Z,7.40
2019-04-14T20:04:44.368Z,7.40
2019-04-14T20:07:13.329Z,7.40
2019-04-14T20:09:42.302Z,7.40
2019-04-14T20:12:11.466Z,7.30
2019-04-14T20:14:40.529Z,7.30
2019-04-14T20:17:27.665Z,7.30
2019-04-14T20:20:11.747Z,7.30
2019-04-14T20:22:57.602Z,7.30
2019-04-14T20:25:42.148Z,7.20
2019-04-14T20:28:45.676Z,7.20
2019-04-14T20:31:35.518Z,7.20
2019-04-14T20:34:04.578Z,7.20
2019-04-14T20:36:34.014Z,7.20
2019-04-14T20:39:03.989Z,7.10
2019-04-14T20:41:32.976Z,7.20
2019-04-14T20:44:02.260Z,7.20
2019-04-14T20:46:31.446Z,7.10
2019-04-14T20:49:00.481Z,7.00
2019-04-14T20:51:29.484Z,7.00
2019-04-14T20:53:58.517Z,7.00
2019-04-14T20:56:27.453Z,7.00
2019-04-14T20:58:56.520Z,7.00
2019-04-14T21:01:27.044Z,7.00
2019-04-14T21:04:03.977Z,6.90
2019-04-14T21:06:50.910Z,6.90
2019-04-14T21:09:29.350Z,6.90
2019-04-14T21:12:13.575Z,6.90
2019-04-14T21:15:05.519Z,6.90
2019-04-14T21:17:50.834Z,7.00
2019-04-14T21:20:30.477Z,6.90
2019-04-14T21:23:24.592Z,6.80
2019-04-14T21:26:01.386Z,6.80
2019-04-14T21:28:39.798Z,6.70
2019-04-14T21:31:18.093Z,6.70
2019-04-14T21:34:04.643Z,6.60
2019-04-14T21:36:39.055Z,6.50
2019-04-14T21:39:22.979Z,6.60
2019-04-14T21:41:51.924Z,6.60
2019-04-14T21:44:20.852Z,6.50
2019-04-14T21:46:49.774Z,6.40
2019-04-14T21:49:18.594Z,6.40
2019-04-14T21:52:06.484Z,6.30
2019-04-14T21:54:35.397Z,6.30
2019-04-14T21:57:22.526Z,6.40
2019-04-14T22:00:05.778Z,6.50
2019-04-14T22:02:52.487Z,6.50
2019-04-14T22:05:40.028Z,6.40
2019-04-14T22:08:15.933Z,6.50
2019-04-14T22:10:51.640Z,6.40
2019-04-14T22:13:20.687Z,6.40
2019-04-14T22:15:50.008Z,6.40
2019-04-14T22:18:19.602Z,6.40
2019-04-14T22:20:48.587Z,6.40
2019-04-14T22:23:18.266Z,6.30
2019-04-14T22:25:47.208Z,6.30
2019-04-14T22:28:16.226Z,6.30
2019-04-14T22:30:45.058Z,6.20
2019-04-14T22:33:14.162Z,6.20
2019-04-14T22:35:43.075Z,6.10
2019-04-14T22:38:12.252Z,6.10
2019-04-14T22:40:41.336Z,6.00
2019-04-14T22:43:10.478Z,6.00
2019-04-14T22:45:39.783Z,6.00
2019-04-14T22:48:08.807Z,6.00
2019-04-14T22:50:38.185Z,6.00
2019-04-14T22:53:07.493Z,6.10
2019-04-14T22:55:37.096Z,6.10
2019-04-14T22:58:06.393Z,6.10
2019-04-14T23:00:44.651Z,6.10
2019-04-14T23:03:22.276Z,6.10
2019-04-14T23:06:00.048Z,6.00
2019-04-14T23:08:51.157Z,6.10
2019-04-14T23:11:54.518Z,6.20
2019-04-14T23:14:39.320Z,6.20
2019-04-14T23:17:39.855Z,6.30
2019-04-14T23:20:15.073Z,6.30
2019-04-14T23:22:49.229Z,6.50
2019-04-14T23:25:18.066Z,6.50
2019-04-14T23:27:47.013Z,6.60
2019-04-14T23:30:16.171Z,6.60
2019-04-14T23:32:45.232Z,6.60
2019-04-14T23:35:14.236Z,6.60
2019-04-14T23:37:43.152Z,6.50
2019-04-14T23:40:12.491Z,6.50
2019-04-14T23:42:41.774Z,6.50
2019-04-14T23:45:11.351Z,6.50
2019-04-14T23:47:40.559Z,6.50
2019-04-14T23:50:09.953Z,6.40
2019-04-14T23:52:39.300Z,6.50
2019-04-14T23:55:08.547Z,6.50
2019-04-14T23:57:38.079Z,6.60
